sensor_id;sensor_type;location;lat;lon;timestamp;temperature;humidity
68051;DHT22;54839;51.364;7.246;2023-04-29T00:00:26;11.30;99.90
68051;DHT22;54839;51.364;7.246;2023-04-29T00:02:51;11.40;99.90
68051;DHT22;54839;51.364;7.246;2023-04-29T00:05:17;11.30;99.90
68051;DHT22;54839;51.364;7.246;2023-04-29T00:07:42;11.30;99.90
68051;DHT22;54839;51.364;7.246;2023-04-29T00:10:09;11.30;99.90
68051;DHT22;54839;51.364;7.246;2023-04-29T00:12:34;11.40;99.90
68051;DHT22;54839;51.364;7.246;2023-04-29T00:15:00;11.30;99.90
68051;DHT22;54839;51.364;7.246;2023-04-29T00:17:27;11.30;99.90
68051;DHT22;54839;51.364;7.246;2023-04-29T00:19:53;11.20;99.90
68051;DHT22;54839;51.364;7.246;2023-04-29T00:22:18;11.20;99.90
68051;DHT22;54839;51.364;7.246;2023-04-29T00:24:46;11.20;99.90
68051;DHT22;54839;51.364;7.246;2023-04-29T00:27:11;11.20;99.90
68051;DHT22;54839;51.364;7.246;2023-04-29T00:29:37;11.20;99.90
68051;DHT22;54839;51.364;7.246;2023-04-29T00:32:03;11.20;99.90
68051;DHT22;54839;51.364;7.246;2023-04-29T00:34:28;11.20;99.90
68051;DHT22;54839;51.364;7.246;2023-04-29T00:36:54;11.10;99.90
68051;DHT22;54839;51.364;7.246;2023-04-29T00:39:19;11.10;99.90
68051;DHT22;54839;51.364;7.246;2023-04-29T00:41:45;11.10;99.90
68051;DHT22;54839;51.364;7.246;2023-04-29T00:44:10;11.00;99.90
68051;DHT22;54839;51.364;7.246;2023-04-29T00:46:36;11.00;99.90
68051;DHT22;54839;51.364;7.246;2023-04-29T00:49:02;11.10;99.90
68051;DHT22;54839;51.364;7.246;2023-04-29T00:51:28;11.10;99.90
68051;DHT22;54839;51.364;7.246;2023-04-29T00:53:54;11.10;99.90
68051;DHT22;54839;51.364;7.246;2023-04-29T00:56:20;11.10;99.90
68051;DHT22;54839;51.364;7.246;2023-04-29T00:58:45;11.00;99.90
68051;DHT22;54839;51.364;7.246;2023-04-29T01:01:15;11.00;99.90
68051;DHT22;54839;51.364;7.246;2023-04-29T01:03:41;11.00;99.90
68051;DHT22;54839;51.364;7.246;2023-04-29T01:09:08;10.90;99.90
68051;DHT22;54839;51.364;7.246;2023-04-29T01:11:52;10.80;99.90
68051;DHT22;54839;51.364;7.246;2023-04-29T01:14:19;10.80;99.90
68051;DHT22;54839;51.364;7.246;2023-04-29T01:16:58;10.80;99.90
68051;DHT22;54839;51.364;7.246;2023-04-29T01:19:49;10.80;99.90
68051;DHT22;54839;51.364;7.246;2023-04-29T01:22:15;10.90;99.90
68051;DHT22;54839;51.364;7.246;2023-04-29T01:24:46;10.80;99.90
68051;DHT22;54839;51.364;7.246;2023-04-29T01:27:36;10.90;99.90
68051;DHT22;54839;51.364;7.246;2023-04-29T01:33:32;10.70;99.90
68051;DHT22;54839;51.364;7.246;2023-04-29T01:39:29;10.50;99.90
68051;DHT22;54839;51.364;7.246;2023-04-29T01:44:28;10.60;99.90
68051;DHT22;54839;51.364;7.246;2023-04-29T01:46:56;10.50;99.90
68051;DHT22;54839;51.364;7.246;2023-04-29T01:49:25;10.40;99.90
68051;DHT22;54839;51.364;7.246;2023-04-29T01:51:51;10.40;99.90
68051;DHT22;54839;51.364;7.246;2023-04-29T01:54:17;10.30;99.90
68051;DHT22;54839;51.364;7.246;2023-04-29T01:56:43;10.30;99.90
68051;DHT22;54839;51.364;7.246;2023-04-29T01:59:09;10.20;99.90
68051;DHT22;54839;51.364;7.246;2023-04-29T02:01:35;10.10;99.90
68051;DHT22;54839;51.364;7.246;2023-04-29T02:04:01;10.10;99.90
68051;DHT22;54839;51.364;7.246;2023-04-29T02:06:26;10.10;99.90
68051;DHT22;54839;51.364;7.246;2023-04-29T02:08:52;10.10;99.90
68051;DHT22;54839;51.364;7.246;2023-04-29T02:11:18;10.10;99.90
68051;DHT22;54839;51.364;7.246;2023-04-29T02:13:43;10.10;99.90
68051;DHT22;54839;51.364;7.246;2023-04-29T02:16:11;10.10;99.90
68051;DHT22;54839;51.364;7.246;2023-04-29T02:18:37;10.10;99.90
68051;DHT22;54839;51.364;7.246;2023-04-29T02:21:03;10.10;99.90
68051;DHT22;54839;51.364;7.246;2023-04-29T02:23:28;10.00;99.90
68051;DHT22;54839;51.364;7.246;2023-04-29T02:25:54;10.00;99.90
68051;DHT22;54839;51.364;7.246;2023-04-29T02:28:20;9.90;99.90
68051;DHT22;54839;51.364;7.246;2023-04-29T02:30:45;9.80;99.90
68051;DHT22;54839;51.364;7.246;2023-04-29T02:33:11;9.80;99.90
68051;DHT22;54839;51.364;7.246;2023-04-29T02:35:36;9.70;99.90
68051;DHT22;54839;51.364;7.246;2023-04-29T02:38:02;9.70;99.90
68051;DHT22;54839;51.364;7.246;2023-04-29T02:40:27;9.70;99.90
68051;DHT22;54839;51.364;7.246;2023-04-29T02:42:53;9.80;99.90
68051;DHT22;54839;51.364;7.246;2023-04-29T02:45:19;9.80;99.90
68051;DHT22;54839;51.364;7.246;2023-04-29T02:47:44;9.80;99.90
68051;DHT22;54839;51.364;7.246;2023-04-29T02:50:10;9.80;99.90
68051;DHT22;54839;51.364;7.246;2023-04-29T02:52:35;9.70;99.90
68051;DHT22;54839;51.364;7.246;2023-04-29T02:55:01;9.80;99.90
68051;DHT22;54839;51.364;7.246;2023-04-29T02:57:26;9.50;99.90
68051;DHT22;54839;51.364;7.246;2023-04-29T02:59:54;9.40;99.90
68051;DHT22;54839;51.364;7.246;2023-04-29T03:02:19;9.30;99.90
68051;DHT22;54839;51.364;7.246;2023-04-29T03:04:45;9.50;99.90
68051;DHT22;54839;51.364;7.246;2023-04-29T03:07:11;9.40;99.90
68051;DHT22;54839;51.364;7.246;2023-04-29T03:09:36;9.30;99.90
68051;DHT22;54839;51.364;7.246;2023-04-29T03:12:02;9.30;99.90
68051;DHT22;54839;51.364;7.246;2023-04-29T03:14:27;9.40;99.90
68051;DHT22;54839;51.364;7.246;2023-04-29T03:16:53;9.30;99.90
68051;DHT22;54839;51.364;7.246;2023-04-29T03:19:20;9.30;99.90
68051;DHT22;54839;51.364;7.246;2023-04-29T03:21:46;9.30;99.90
68051;DHT22;54839;51.364;7.246;2023-04-29T03:24:12;9.40;99.90
68051;DHT22;54839;51.364;7.246;2023-04-29T03:26:37;9.50;99.90
68051;DHT22;54839;51.364;7.246;2023-04-29T03:29:02;9.40;99.90
68051;DHT22;54839;51.364;7.246;2023-04-29T03:31:28;9.40;99.90
68051;DHT22;54839;51.364;7.246;2023-04-29T03:33:54;9.40;99.90
68051;DHT22;54839;51.364;7.246;2023-04-29T03:36:19;9.20;99.90
68051;DHT22;54839;51.364;7.246;2023-04-29T03:38:45;9.20;99.90
68051;DHT22;54839;51.364;7.246;2023-04-29T03:41:11;9.20;99.90
68051;DHT22;54839;51.364;7.246;2023-04-29T03:43:36;9.20;99.90
68051;DHT22;54839;51.364;7.246;2023-04-29T03:46:02;9.30;99.90
68051;DHT22;54839;51.364;7.246;2023-04-29T03:48:27;9.30;99.90
68051;DHT22;54839;51.364;7.246;2023-04-29T03:50:53;9.40;99.90
68051;DHT22;54839;51.364;7.246;2023-04-29T03:53:18;9.30;99.90
68051;DHT22;54839;51.364;7.246;2023-04-29T03:55:45;9.40;99.90
68051;DHT22;54839;51.364;7.246;2023-04-29T03:58:10;9.40;99.90
68051;DHT22;54839;51.364;7.246;2023-04-29T04:00:36;9.30;99.90
68051;DHT22;54839;51.364;7.246;2023-04-29T04:03:02;9.50;99.90
68051;DHT22;54839;51.364;7.246;2023-04-29T04:05:27;9.30;99.90
68051;DHT22;54839;51.364;7.246;2023-04-29T04:07:53;9.30;99.90
68051;DHT22;54839;51.364;7.246;2023-04-29T04:10:19;9.30;99.90
68051;DHT22;54839;51.364;7.246;2023-04-29T04:12:45;9.40;99.90
68051;DHT22;54839;51.364;7.246;2023-04-29T04:15:12;9.30;99.90
68051;DHT22;54839;51.364;7.246;2023-04-29T04:17:37;9.40;99.90
68051;DHT22;54839;51.364;7.246;2023-04-29T04:20:03;9.40;99.90
68051;DHT22;54839;51.364;7.246;2023-04-29T04:22:29;9.40;99.90
68051;DHT22;54839;51.364;7.246;2023-04-29T04:24:55;9.40;99.90
68051;DHT22;54839;51.364;7.246;2023-04-29T04:27:20;9.40;99.90
68051;DHT22;54839;51.364;7.246;2023-04-29T04:29:46;9.50;99.90
68051;DHT22;54839;51.364;7.246;2023-04-29T04:32:12;9.40;99.90
68051;DHT22;54839;51.364;7.246;2023-04-29T04:34:37;9.30;99.90
68051;DHT22;54839;51.364;7.246;2023-04-29T04:37:06;9.40;99.90
68051;DHT22;54839;51.364;7.246;2023-04-29T04:39:32;9.40;99.90
68051;DHT22;54839;51.364;7.246;2023-04-29T04:41:58;9.40;99.90
68051;DHT22;54839;51.364;7.246;2023-04-29T04:44:23;9.40;99.90
68051;DHT22;54839;51.364;7.246;2023-04-29T04:46:52;9.40;99.90
68051;DHT22;54839;51.364;7.246;2023-04-29T04:49:17;9.40;99.90
68051;DHT22;54839;51.364;7.246;2023-04-29T04:51:43;9.40;99.90
68051;DHT22;54839;51.364;7.246;2023-04-29T04:54:09;9.30;99.90
68051;DHT22;54839;51.364;7.246;2023-04-29T04:56:35;9.20;99.90
68051;DHT22;54839;51.364;7.246;2023-04-29T04:59:02;9.20;99.90
68051;DHT22;54839;51.364;7.246;2023-04-29T05:01:28;9.20;99.90
68051;DHT22;54839;51.364;7.246;2023-04-29T05:03:53;9.30;99.90
68051;DHT22;54839;51.364;7.246;2023-04-29T05:06:19;9.30;99.90
68051;DHT22;54839;51.364;7.246;2023-04-29T05:08:44;9.40;99.90
68051;DHT22;54839;51.364;7.246;2023-04-29T05:11:20;9.20;99.90
68051;DHT22;54839;51.364;7.246;2023-04-29T05:13:46;9.10;99.90
68051;DHT22;54839;51.364;7.246;2023-04-29T05:16:12;9.10;99.90
68051;DHT22;54839;51.364;7.246;2023-04-29T05:18:37;9.10;99.90
68051;DHT22;54839;51.364;7.246;2023-04-29T05:21:03;9.20;99.90
68051;DHT22;54839;51.364;7.246;2023-04-29T05:23:28;9.20;99.90
68051;DHT22;54839;51.364;7.246;2023-04-29T05:25:54;9.10;99.90
68051;DHT22;54839;51.364;7.246;2023-04-29T05:28:20;9.20;99.90
68051;DHT22;54839;51.364;7.246;2023-04-29T05:30:45;9.30;99.90
68051;DHT22;54839;51.364;7.246;2023-04-29T05:33:11;9.40;99.90
68051;DHT22;54839;51.364;7.246;2023-04-29T05:35:37;9.40;99.90
68051;DHT22;54839;51.364;7.246;2023-04-29T05:38:03;9.40;99.90
68051;DHT22;54839;51.364;7.246;2023-04-29T05:40:28;9.40;99.90
68051;DHT22;54839;51.364;7.246;2023-04-29T05:42:54;9.40;99.90
68051;DHT22;54839;51.364;7.246;2023-04-29T05:45:20;9.50;99.90
68051;DHT22;54839;51.364;7.246;2023-04-29T05:47:45;9.50;99.90
68051;DHT22;54839;51.364;7.246;2023-04-29T05:50:11;9.60;99.90
68051;DHT22;54839;51.364;7.246;2023-04-29T05:52:37;9.50;99.90
68051;DHT22;54839;51.364;7.246;2023-04-29T05:55:02;9.40;99.90
68051;DHT22;54839;51.364;7.246;2023-04-29T05:57:28;9.40;99.90
68051;DHT22;54839;51.364;7.246;2023-04-29T05:59:54;9.40;99.90
68051;DHT22;54839;51.364;7.246;2023-04-29T06:02:20;9.40;99.90
68051;DHT22;54839;51.364;7.246;2023-04-29T06:04:45;9.40;99.90
68051;DHT22;54839;51.364;7.246;2023-04-29T06:07:12;9.40;99.90
68051;DHT22;54839;51.364;7.246;2023-04-29T06:09:38;9.50;99.90
68051;DHT22;54839;51.364;7.246;2023-04-29T06:12:04;9.50;99.90
68051;DHT22;54839;51.364;7.246;2023-04-29T06:14:30;9.50;99.90
68051;DHT22;54839;51.364;7.246;2023-04-29T06:16:55;9.50;99.90
68051;DHT22;54839;51.364;7.246;2023-04-29T06:19:21;9.50;99.90
68051;DHT22;54839;51.364;7.246;2023-04-29T06:21:47;9.40;99.90
68051;DHT22;54839;51.364;7.246;2023-04-29T06:24:12;9.60;99.90
68051;DHT22;54839;51.364;7.246;2023-04-29T06:26:38;9.60;99.90
68051;DHT22;54839;51.364;7.246;2023-04-29T06:29:03;9.70;99.90
68051;DHT22;54839;51.364;7.246;2023-04-29T06:31:29;9.70;99.90
68051;DHT22;54839;51.364;7.246;2023-04-29T06:33:54;9.70;99.90
68051;DHT22;54839;51.364;7.246;2023-04-29T06:36:20;9.90;99.90
68051;DHT22;54839;51.364;7.246;2023-04-29T06:38:46;9.90;99.90
68051;DHT22;54839;51.364;7.246;2023-04-29T06:41:11;9.90;99.90
68051;DHT22;54839;51.364;7.246;2023-04-29T06:43:37;9.80;99.90
68051;DHT22;54839;51.364;7.246;2023-04-29T06:46:03;9.90;99.90
68051;DHT22;54839;51.364;7.246;2023-04-29T06:48:28;9.90;99.90
68051;DHT22;54839;51.364;7.246;2023-04-29T06:50:55;10.00;99.90
68051;DHT22;54839;51.364;7.246;2023-04-29T06:53:21;10.10;99.90
68051;DHT22;54839;51.364;7.246;2023-04-29T06:55:47;10.10;99.90
68051;DHT22;54839;51.364;7.246;2023-04-29T06:58:17;10.20;99.90
68051;DHT22;54839;51.364;7.246;2023-04-29T07:00:44;10.20;99.90
68051;DHT22;54839;51.364;7.246;2023-04-29T07:03:10;10.00;99.90
68051;DHT22;54839;51.364;7.246;2023-04-29T07:05:36;9.70;99.90
68051;DHT22;54839;51.364;7.246;2023-04-29T07:08:07;9.80;99.90
68051;DHT22;54839;51.364;7.246;2023-04-29T07:10:32;9.70;99.90
68051;DHT22;54839;51.364;7.246;2023-04-29T07:12:58;9.80;99.90
68051;DHT22;54839;51.364;7.246;2023-04-29T07:15:27;9.90;99.90
68051;DHT22;54839;51.364;7.246;2023-04-29T07:17:54;10.20;99.90
68051;DHT22;54839;51.364;7.246;2023-04-29T07:20:20;10.20;99.90
68051;DHT22;54839;51.364;7.246;2023-04-29T07:22:46;10.00;99.90
68051;DHT22;54839;51.364;7.246;2023-04-29T07:25:11;10.00;99.90
68051;DHT22;54839;51.364;7.246;2023-04-29T07:27:37;9.90;99.90
68051;DHT22;54839;51.364;7.246;2023-04-29T07:30:03;9.90;99.90
68051;DHT22;54839;51.364;7.246;2023-04-29T07:32:29;9.90;99.90
68051;DHT22;54839;51.364;7.246;2023-04-29T07:34:58;9.80;99.90
68051;DHT22;54839;51.364;7.246;2023-04-29T07:37:24;9.70;99.90
68051;DHT22;54839;51.364;7.246;2023-04-29T07:39:50;9.60;99.90
68051;DHT22;54839;51.364;7.246;2023-04-29T07:42:15;9.60;99.90
68051;DHT22;54839;51.364;7.246;2023-04-29T07:44:41;9.70;99.90
68051;DHT22;54839;51.364;7.246;2023-04-29T07:47:06;9.60;99.90
68051;DHT22;54839;51.364;7.246;2023-04-29T07:49:32;9.70;99.90
68051;DHT22;54839;51.364;7.246;2023-04-29T07:51:57;9.80;99.90
68051;DHT22;54839;51.364;7.246;2023-04-29T07:54:23;9.90;99.90
68051;DHT22;54839;51.364;7.246;2023-04-29T07:56:48;9.90;99.90
68051;DHT22;54839;51.364;7.246;2023-04-29T07:59:14;9.90;99.90
68051;DHT22;54839;51.364;7.246;2023-04-29T08:01:40;9.80;99.90
68051;DHT22;54839;51.364;7.246;2023-04-29T08:04:06;9.80;99.90
68051;DHT22;54839;51.364;7.246;2023-04-29T08:06:33;9.70;99.90
68051;DHT22;54839;51.364;7.246;2023-04-29T08:08:58;9.70;99.90
68051;DHT22;54839;51.364;7.246;2023-04-29T08:11:24;9.80;99.90
68051;DHT22;54839;51.364;7.246;2023-04-29T08:13:51;9.80;99.90
68051;DHT22;54839;51.364;7.246;2023-04-29T08:16:16;9.80;99.90
68051;DHT22;54839;51.364;7.246;2023-04-29T08:18:42;9.70;99.90
68051;DHT22;54839;51.364;7.246;2023-04-29T08:21:08;9.70;99.90
68051;DHT22;54839;51.364;7.246;2023-04-29T08:23:36;9.70;99.90
68051;DHT22;54839;51.364;7.246;2023-04-29T08:26:01;9.70;99.90
68051;DHT22;54839;51.364;7.246;2023-04-29T08:28:27;9.70;99.90
68051;DHT22;54839;51.364;7.246;2023-04-29T08:30:53;9.80;99.90
68051;DHT22;54839;51.364;7.246;2023-04-29T08:33:19;9.80;99.90
68051;DHT22;54839;51.364;7.246;2023-04-29T08:35:45;9.80;99.90
68051;DHT22;54839;51.364;7.246;2023-04-29T08:38:11;9.70;99.90
68051;DHT22;54839;51.364;7.246;2023-04-29T08:40:42;9.70;99.90
68051;DHT22;54839;51.364;7.246;2023-04-29T08:43:09;9.80;99.90
68051;DHT22;54839;51.364;7.246;2023-04-29T08:45:35;9.70;99.90
68051;DHT22;54839;51.364;7.246;2023-04-29T08:48:05;9.60;99.90
68051;DHT22;54839;51.364;7.246;2023-04-29T08:50:36;9.70;99.90
68051;DHT22;54839;51.364;7.246;2023-04-29T08:53:04;9.60;99.90
68051;DHT22;54839;51.364;7.246;2023-04-29T08:55:39;9.70;99.90
68051;DHT22;54839;51.364;7.246;2023-04-29T08:58:06;9.80;99.90
68051;DHT22;54839;51.364;7.246;2023-04-29T09:00:33;9.80;99.90
68051;DHT22;54839;51.364;7.246;2023-04-29T09:03:00;9.80;99.90
68051;DHT22;54839;51.364;7.246;2023-04-29T09:05:29;9.90;99.90
68051;DHT22;54839;51.364;7.246;2023-04-29T09:07:56;9.90;99.90
68051;DHT22;54839;51.364;7.246;2023-04-29T09:10:24;10.00;99.90
68051;DHT22;54839;51.364;7.246;2023-04-29T09:12:49;9.90;99.90
68051;DHT22;54839;51.364;7.246;2023-04-29T09:15:15;9.90;99.90
68051;DHT22;54839;51.364;7.246;2023-04-29T09:17:43;10.00;99.90
68051;DHT22;54839;51.364;7.246;2023-04-29T09:22:47;9.90;99.90
68051;DHT22;54839;51.364;7.246;2023-04-29T09:25:13;9.80;99.90
68051;DHT22;54839;51.364;7.246;2023-04-29T09:27:39;10.00;99.90
68051;DHT22;54839;51.364;7.246;2023-04-29T09:30:05;10.00;99.90
68051;DHT22;54839;51.364;7.246;2023-04-29T09:32:31;9.90;99.90
68051;DHT22;54839;51.364;7.246;2023-04-29T09:34:56;10.00;99.90
68051;DHT22;54839;51.364;7.246;2023-04-29T09:37:26;10.10;99.90
68051;DHT22;54839;51.364;7.246;2023-04-29T09:39:53;10.10;99.90
68051;DHT22;54839;51.364;7.246;2023-04-29T09:42:19;10.00;99.90
68051;DHT22;54839;51.364;7.246;2023-04-29T09:44:44;10.00;99.90
68051;DHT22;54839;51.364;7.246;2023-04-29T09:47:10;10.00;99.90
68051;DHT22;54839;51.364;7.246;2023-04-29T09:49:41;10.10;99.90
68051;DHT22;54839;51.364;7.246;2023-04-29T09:52:11;10.20;99.90
68051;DHT22;54839;51.364;7.246;2023-04-29T09:54:39;10.20;99.90
68051;DHT22;54839;51.364;7.246;2023-04-29T09:57:06;10.20;99.90
68051;DHT22;54839;51.364;7.246;2023-04-29T09:59:33;10.30;99.90
68051;DHT22;54839;51.364;7.246;2023-04-29T10:02:01;10.40;99.90
68051;DHT22;54839;51.364;7.246;2023-04-29T10:04:30;10.50;99.90
68051;DHT22;54839;51.364;7.246;2023-04-29T10:06:57;10.50;99.90
68051;DHT22;54839;51.364;7.246;2023-04-29T10:09:24;10.40;99.90
68051;DHT22;54839;51.364;7.246;2023-04-29T10:11:52;10.40;99.90
68051;DHT22;54839;51.364;7.246;2023-04-29T10:14:20;10.50;99.90
68051;DHT22;54839;51.364;7.246;2023-04-29T10:17:07;10.50;99.90
68051;DHT22;54839;51.364;7.246;2023-04-29T10:19:46;10.70;99.90
68051;DHT22;54839;51.364;7.246;2023-04-29T10:22:18;10.80;99.90
68051;DHT22;54839;51.364;7.246;2023-04-29T10:24:47;11.00;99.90
68051;DHT22;54839;51.364;7.246;2023-04-29T10:27:14;11.30;99.90
68051;DHT22;54839;51.364;7.246;2023-04-29T10:29:40;11.50;99.90
68051;DHT22;54839;51.364;7.246;2023-04-29T10:32:08;12.10;99.90
68051;DHT22;54839;51.364;7.246;2023-04-29T10:34:37;12.90;99.90
68051;DHT22;54839;51.364;7.246;2023-04-29T10:37:08;13.30;99.90
68051;DHT22;54839;51.364;7.246;2023-04-29T10:39:43;13.30;99.90
68051;DHT22;54839;51.364;7.246;2023-04-29T10:42:45;13.20;99.90
68051;DHT22;54839;51.364;7.246;2023-04-29T10:53:18;13.30;99.90
68051;DHT22;54839;51.364;7.246;2023-04-29T10:55:47;13.70;99.90
68051;DHT22;54839;51.364;7.246;2023-04-29T11:00:58;14.40;99.90
68051;DHT22;54839;51.364;7.246;2023-04-29T11:03:53;14.50;99.90
68051;DHT22;54839;51.364;7.246;2023-04-29T11:06:37;14.60;99.90
68051;DHT22;54839;51.364;7.246;2023-04-29T11:09:18;14.70;99.90
68051;DHT22;54839;51.364;7.246;2023-04-29T11:14:12;14.70;99.90
68051;DHT22;54839;51.364;7.246;2023-04-29T11:16:46;14.80;99.90
68051;DHT22;54839;51.364;7.246;2023-04-29T11:19:14;14.60;99.90
68051;DHT22;54839;51.364;7.246;2023-04-29T11:21:40;14.60;99.90
68051;DHT22;54839;51.364;7.246;2023-04-29T11:24:06;14.30;99.90
68051;DHT22;54839;51.364;7.246;2023-04-29T11:26:34;14.20;99.90
68051;DHT22;54839;51.364;7.246;2023-04-29T11:28:59;14.20;99.90
68051;DHT22;54839;51.364;7.246;2023-04-29T11:31:31;14.60;99.90
68051;DHT22;54839;51.364;7.246;2023-04-29T11:33:58;15.10;99.90
68051;DHT22;54839;51.364;7.246;2023-04-29T11:36:24;15.60;99.90
68051;DHT22;54839;51.364;7.246;2023-04-29T11:38:50;15.80;99.90
68051;DHT22;54839;51.364;7.246;2023-04-29T11:41:16;16.10;99.90
68051;DHT22;54839;51.364;7.246;2023-04-29T11:43:45;16.10;99.90
68051;DHT22;54839;51.364;7.246;2023-04-29T11:46:12;16.20;99.90
68051;DHT22;54839;51.364;7.246;2023-04-29T11:48:45;16.20;99.90
68051;DHT22;54839;51.364;7.246;2023-04-29T11:51:12;16.60;99.90
68051;DHT22;54839;51.364;7.246;2023-04-29T11:53:38;16.50;99.90
68051;DHT22;54839;51.364;7.246;2023-04-29T11:56:04;16.60;99.90
68051;DHT22;54839;51.364;7.246;2023-04-29T11:58:30;16.70;99.90
68051;DHT22;54839;51.364;7.246;2023-04-29T12:00:57;16.60;99.90
68051;DHT22;54839;51.364;7.246;2023-04-29T12:03:23;16.40;99.90
68051;DHT22;54839;51.364;7.246;2023-04-29T12:05:54;16.10;99.90
68051;DHT22;54839;51.364;7.246;2023-04-29T12:08:21;15.60;99.90
68051;DHT22;54839;51.364;7.246;2023-04-29T12:10:47;15.80;99.90
68051;DHT22;54839;51.364;7.246;2023-04-29T12:13:14;16.20;99.90
68051;DHT22;54839;51.364;7.246;2023-04-29T12:15:40;16.60;99.90
68051;DHT22;54839;51.364;7.246;2023-04-29T12:18:07;15.80;99.90
68051;DHT22;54839;51.364;7.246;2023-04-29T12:20:33;16.00;99.90
68051;DHT22;54839;51.364;7.246;2023-04-29T12:25:37;15.60;99.90
68051;DHT22;54839;51.364;7.246;2023-04-29T12:28:03;15.40;99.90
68051;DHT22;54839;51.364;7.246;2023-04-29T12:30:29;15.20;99.90
68051;DHT22;54839;51.364;7.246;2023-04-29T12:32:54;15.10;99.90
68051;DHT22;54839;51.364;7.246;2023-04-29T12:35:20;15.40;99.90
68051;DHT22;54839;51.364;7.246;2023-04-29T12:37:49;15.60;99.90
68051;DHT22;54839;51.364;7.246;2023-04-29T12:40:15;16.10;99.90
68051;DHT22;54839;51.364;7.246;2023-04-29T12:42:42;16.40;99.90
68051;DHT22;54839;51.364;7.246;2023-04-29T12:45:25;16.70;99.90
68051;DHT22;54839;51.364;7.246;2023-04-29T12:47:51;17.10;99.90
68051;DHT22;54839;51.364;7.246;2023-04-29T12:50:16;16.80;99.90
68051;DHT22;54839;51.364;7.246;2023-04-29T12:52:42;16.30;99.90
68051;DHT22;54839;51.364;7.246;2023-04-29T12:55:07;15.80;99.90
68051;DHT22;54839;51.364;7.246;2023-04-29T12:57:33;15.50;99.90
68051;DHT22;54839;51.364;7.246;2023-04-29T12:59:58;15.40;99.90
68051;DHT22;54839;51.364;7.246;2023-04-29T13:02:24;15.50;99.90
68051;DHT22;54839;51.364;7.246;2023-04-29T13:04:50;15.70;99.90
68051;DHT22;54839;51.364;7.246;2023-04-29T13:07:15;15.60;99.90
68051;DHT22;54839;51.364;7.246;2023-04-29T13:09:41;15.50;99.90
68051;DHT22;54839;51.364;7.246;2023-04-29T13:12:06;15.80;99.90
68051;DHT22;54839;51.364;7.246;2023-04-29T13:14:33;15.80;99.90
68051;DHT22;54839;51.364;7.246;2023-04-29T13:16:58;15.80;99.90
68051;DHT22;54839;51.364;7.246;2023-04-29T13:19:24;16.00;99.90
68051;DHT22;54839;51.364;7.246;2023-04-29T13:21:50;15.50;99.90
68051;DHT22;54839;51.364;7.246;2023-04-29T13:24:15;15.70;99.90
68051;DHT22;54839;51.364;7.246;2023-04-29T13:26:43;15.70;99.90
68051;DHT22;54839;51.364;7.246;2023-04-29T13:29:08;15.70;99.90
68051;DHT22;54839;51.364;7.246;2023-04-29T13:31:34;15.30;99.90
68051;DHT22;54839;51.364;7.246;2023-04-29T13:33:59;15.00;99.90
68051;DHT22;54839;51.364;7.246;2023-04-29T13:36:25;14.90;99.90
68051;DHT22;54839;51.364;7.246;2023-04-29T13:38:52;14.40;99.90
68051;DHT22;54839;51.364;7.246;2023-04-29T13:41:17;14.50;99.90
68051;DHT22;54839;51.364;7.246;2023-04-29T13:43:43;14.70;99.90
68051;DHT22;54839;51.364;7.246;2023-04-29T13:46:08;15.00;99.90
68051;DHT22;54839;51.364;7.246;2023-04-29T13:48:34;15.50;99.90
68051;DHT22;54839;51.364;7.246;2023-04-29T13:51:01;15.80;99.90
68051;DHT22;54839;51.364;7.246;2023-04-29T13:53:26;15.90;99.90
68051;DHT22;54839;51.364;7.246;2023-04-29T13:55:52;16.00;99.90
68051;DHT22;54839;51.364;7.246;2023-04-29T13:58:17;16.00;99.90
68051;DHT22;54839;51.364;7.246;2023-04-29T14:00:43;16.00;99.90
68051;DHT22;54839;51.364;7.246;2023-04-29T14:03:08;15.90;99.90
68051;DHT22;54839;51.364;7.246;2023-04-29T14:05:34;15.90;99.90
68051;DHT22;54839;51.364;7.246;2023-04-29T14:08:00;16.10;99.90
68051;DHT22;54839;51.364;7.246;2023-04-29T14:10:25;16.10;99.90
68051;DHT22;54839;51.364;7.246;2023-04-29T14:12:51;15.80;99.90
68051;DHT22;54839;51.364;7.246;2023-04-29T14:15:16;15.80;99.90
68051;DHT22;54839;51.364;7.246;2023-04-29T14:17:42;15.50;99.90
68051;DHT22;54839;51.364;7.246;2023-04-29T14:20:08;15.40;99.90
68051;DHT22;54839;51.364;7.246;2023-04-29T14:22:33;15.30;99.90
68051;DHT22;54839;51.364;7.246;2023-04-29T14:24:59;15.20;99.90
68051;DHT22;54839;51.364;7.246;2023-04-29T14:27:24;14.90;99.90
68051;DHT22;54839;51.364;7.246;2023-04-29T14:29:50;14.70;99.90
68051;DHT22;54839;51.364;7.246;2023-04-29T14:32:16;14.50;99.90
68051;DHT22;54839;51.364;7.246;2023-04-29T14:34:41;14.30;99.90
68051;DHT22;54839;51.364;7.246;2023-04-29T14:37:07;14.30;99.90
68051;DHT22;54839;51.364;7.246;2023-04-29T14:39:32;14.20;99.90
68051;DHT22;54839;51.364;7.246;2023-04-29T14:41:58;14.40;99.90
68051;DHT22;54839;51.364;7.246;2023-04-29T14:44:23;14.40;99.90
68051;DHT22;54839;51.364;7.246;2023-04-29T14:46:49;14.80;99.90
68051;DHT22;54839;51.364;7.246;2023-04-29T14:49:15;15.00;99.90
68051;DHT22;54839;51.364;7.246;2023-04-29T14:51:40;15.20;99.90
68051;DHT22;54839;51.364;7.246;2023-04-29T14:54:06;15.50;99.90
68051;DHT22;54839;51.364;7.246;2023-04-29T14:56:32;15.70;99.90
68051;DHT22;54839;51.364;7.246;2023-04-29T14:58:57;15.90;99.90
68051;DHT22;54839;51.364;7.246;2023-04-29T15:01:23;16.10;99.90
68051;DHT22;54839;51.364;7.246;2023-04-29T15:03:48;16.50;99.90
68051;DHT22;54839;51.364;7.246;2023-04-29T15:06:14;16.70;99.90
68051;DHT22;54839;51.364;7.246;2023-04-29T15:08:39;16.70;99.90
68051;DHT22;54839;51.364;7.246;2023-04-29T15:11:05;16.80;99.90
68051;DHT22;54839;51.364;7.246;2023-04-29T15:13:30;16.70;99.90
68051;DHT22;54839;51.364;7.246;2023-04-29T15:15:56;16.50;99.90
68051;DHT22;54839;51.364;7.246;2023-04-29T15:18:22;16.30;99.90
68051;DHT22;54839;51.364;7.246;2023-04-29T15:20:48;16.00;99.90
68051;DHT22;54839;51.364;7.246;2023-04-29T15:23:14;15.60;99.90
68051;DHT22;54839;51.364;7.246;2023-04-29T15:25:40;15.60;99.90
68051;DHT22;54839;51.364;7.246;2023-04-29T15:28:05;15.70;99.90
68051;DHT22;54839;51.364;7.246;2023-04-29T15:30:31;15.70;99.90
68051;DHT22;54839;51.364;7.246;2023-04-29T15:32:57;16.30;99.90
68051;DHT22;54839;51.364;7.246;2023-04-29T15:35:22;17.60;99.90
68051;DHT22;54839;51.364;7.246;2023-04-29T15:37:48;18.40;99.90
68051;DHT22;54839;51.364;7.246;2023-04-29T15:40:13;17.80;99.90
68051;DHT22;54839;51.364;7.246;2023-04-29T15:42:40;17.80;99.90
68051;DHT22;54839;51.364;7.246;2023-04-29T15:45:06;19.60;99.90
68051;DHT22;54839;51.364;7.246;2023-04-29T15:47:33;22.00;99.90
68051;DHT22;54839;51.364;7.246;2023-04-29T15:49:59;23.50;99.90
68051;DHT22;54839;51.364;7.246;2023-04-29T15:52:25;25.60;99.90
68051;DHT22;54839;51.364;7.246;2023-04-29T15:54:50;26.00;99.00
68051;DHT22;54839;51.364;7.246;2023-04-29T15:57:16;25.10;95.90
68051;DHT22;54839;51.364;7.246;2023-04-29T15:59:41;22.70;98.00
68051;DHT22;54839;51.364;7.246;2023-04-29T16:02:07;20.90;99.90
68051;DHT22;54839;51.364;7.246;2023-04-29T16:04:35;19.70;99.90